sensor_id;sensor_type;location;lat;lon;timestamp;pressure;altitude;pressure_sealevel;temperature;humidity
25130;BME280;13308;50.860;13.664;2023-11-19T07:07:44;96035.75;;;5.31;100.00
25130;BME280;13308;50.860;13.664;2023-11-19T07:10:11;96041.19;;;5.34;100.00
25130;BME280;13308;50.860;13.664;2023-11-19T07:12:37;96043.41;;;5.50;100.00
25130;BME280;13308;50.860;13.664;2023-11-19T07:15:03;96058.00;;;5.73;100.00
25130;BME280;13308;50.860;13.664;2023-11-19T07:17:30;96046.53;;;5.89;100.00
25130;BME280;13308;50.860;13.664;2023-11-19T07:19:55;96066.44;;;5.93;100.00
25130;BME280;13308;50.860;13.664;2023-11-19T07:22:24;96064.47;;;5.97;100.00
25130;BME280;13308;50.860;13.664;2023-11-19T07:24:49;96071.16;;;5.92;100.00
25130;BME280;13308;50.860;13.664;2023-11-19T07:27:15;96081.31;;;5.92;100.00
25130;BME280;13308;50.860;13.664;2023-11-19T07:29:43;96081.59;;;6.01;100.00
25130;BME280;13308;50.860;13.664;2023-11-19T07:32:08;96091.34;;;6.05;100.00
25130;BME280;13308;50.860;13.664;2023-11-19T07:34:34;96086.88;;;6.22;100.00
25130;BME280;13308;50.860;13.664;2023-11-19T07:36:59;96102.03;;;6.30;100.00
25130;BME280;13308;50.860;13.664;2023-11-19T07:39:27;96099.16;;;6.44;100.00
25130;BME280;13308;50.860;13.664;2023-11-19T07:41:52;96101.66;;;6.61;100.00
25130;BME280;13308;50.860;13.664;2023-11-19T07:44:19;96104.56;;;6.81;100.00
25130;BME280;13308;50.860;13.664;2023-11-19T07:46:45;96101.16;;;7.00;100.00
25130;BME280;13308;50.860;13.664;2023-11-19T07:49:10;96105.97;;;7.19;100.00
25130;BME280;13308;50.860;13.664;2023-11-19T07:51:36;96096.88;;;7.25;100.00
25130;BME280;13308;50.860;13.664;2023-11-19T07:54:01;96096.66;;;7.39;100.00
25130;BME280;13308;50.860;13.664;2023-11-19T07:56:26;96109.56;;;7.42;100.00
25130;BME280;13308;50.860;13.664;2023-11-19T07:58:52;96108.13;;;7.57;100.00
25130;BME280;13308;50.860;13.664;2023-11-19T08:01:17;96102.44;;;7.71;100.00
25130;BME280;13308;50.860;13.664;2023-11-19T08:03:43;96104.66;;;7.80;100.00
25130;BME280;13308;50.860;13.664;2023-11-19T08:06:09;96097.13;;;7.84;100.00
25130;BME280;13308;50.860;13.664;2023-11-19T08:08:34;96113.84;;;7.93;100.00
25130;BME280;13308;50.860;13.664;2023-11-19T08:11:00;96109.56;;;8.11;100.00
25130;BME280;13308;50.860;13.664;2023-11-19T08:13:25;96105.13;;;8.21;100.00
25130;BME280;13308;50.860;13.664;2023-11-19T08:15:51;96110.50;;;8.28;100.00
25130;BME280;13308;50.860;13.664;2023-11-19T08:18:16;96122.91;;;8.36;100.00
25130;BME280;13308;50.860;13.664;2023-11-19T08:20:43;96113.69;;;8.46;100.00
25130;BME280;13308;50.860;13.664;2023-11-19T08:23:09;96124.97;;;8.51;100.00
25130;BME280;13308;50.860;13.664;2023-11-19T08:25:35;96122.00;;;8.61;100.00
25130;BME280;13308;50.860;13.664;2023-11-19T08:28:00;96121.03;;;8.71;100.00
25130;BME280;13308;50.860;13.664;2023-11-19T08:30:26;96109.13;;;8.78;100.00
25130;BME280;13308;50.860;13.664;2023-11-19T08:32:52;96112.84;;;8.87;100.00
25130;BME280;13308;50.860;13.664;2023-11-19T08:35:17;96116.28;;;8.91;100.00
25130;BME280;13308;50.860;13.664;2023-11-19T08:37:43;96101.69;;;8.94;100.00
25130;BME280;13308;50.860;13.664;2023-11-19T08:40:08;96097.59;;;9.02;100.00
25130;BME280;13308;50.860;13.664;2023-11-19T08:42:34;96118.25;;;9.10;100.00
25130;BME280;13308;50.860;13.664;2023-11-19T08:45:00;96107.94;;;9.14;100.00
25130;BME280;13308;50.860;13.664;2023-11-19T08:47:25;96101.09;;;9.22;100.00
25130;BME280;13308;50.860;13.664;2023-11-19T08:49:51;96101.84;;;9.23;100.00
25130;BME280;13308;50.860;13.664;2023-11-19T08:52:20;96099.53;;;9.21;100.00
25130;BME280;13308;50.860;13.664;2023-11-19T08:54:45;96097.31;;;9.32;100.00
25130;BME280;13308;50.860;13.664;2023-11-19T08:57:11;96111.78;;;9.36;100.00
25130;BME280;13308;50.860;13.664;2023-11-19T08:59:36;96099.06;;;9.42;100.00
25130;BME280;13308;50.860;13.664;2023-11-19T09:02:05;96102.34;;;9.53;100.00
25130;BME280;13308;50.860;13.664;2023-11-19T09:04:30;96105.75;;;9.57;100.00
25130;BME280;13308;50.860;13.664;2023-11-19T09:06:57;96111.28;;;9.57;100.00
25130;BME280;13308;50.860;13.664;2023-11-19T09:09:22;96113.69;;;9.55;100.00
25130;BME280;13308;50.860;13.664;2023-11-19T09:11:48;96113.69;;;9.55;100.00
25130;BME280;13308;50.860;13.664;2023-11-19T09:14:13;96108.88;;;9.59;100.00
25130;BME280;13308;50.860;13.664;2023-11-19T09:16:38;96104.41;;;9.65;100.00
25130;BME280;13308;50.860;13.664;2023-11-19T09:19:04;96108.38;;;9.64;100.00
25130;BME280;13308;50.860;13.664;2023-11-19T09:21:30;96099.94;;;9.71;100.00
25130;BME280;13308;50.860;13.664;2023-11-19T09:23:55;96112.50;;;9.72;100.00
25130;BME280;13308;50.860;13.664;2023-11-19T09:26:21;96109.56;;;9.79;100.00
25130;BME280;13308;50.860;13.664;2023-11-19T09:28:46;96113.88;;;9.80;100.00
25130;BME280;13308;50.860;13.664;2023-11-19T09:31:15;96101.13;;;9.86;100.00
25130;BME280;13308;50.860;13.664;2023-11-19T09:33:41;96111.63;;;9.91;100.00
25130;BME280;13308;50.860;13.664;2023-11-19T09:36:07;96108.69;;;9.98;100.00
25130;BME280;13308;50.860;13.664;2023-11-19T09:38:32;96110.13;;;10.06;100.00
25130;BME280;13308;50.860;13.664;2023-11-19T09:41:00;96102.69;;;10.03;100.00
25130;BME280;13308;50.860;13.664;2023-11-19T09:43:27;96112.16;;;10.02;100.00
25130;BME280;13308;50.860;13.664;2023-11-19T09:45:54;96112.50;;;10.04;100.00
25130;BME280;13308;50.860;13.664;2023-11-19T09:48:21;96123.69;;;9.97;100.00
25130;BME280;13308;50.860;13.664;2023-11-19T09:50:47;96123.69;;;9.97;100.00
25130;BME280;13308;50.860;13.664;2023-11-19T09:53:14;96115.94;;;9.92;100.00
25130;BME280;13308;50.860;13.664;2023-11-19T09:55:40;96120.50;;;9.83;100.00
25130;BME280;13308;50.860;13.664;2023-11-19T09:58:06;96115.34;;;9.85;100.00
25130;BME280;13308;50.860;13.664;2023-11-19T10:00:32;96117.00;;;9.82;100.00
25130;BME280;13308;50.860;13.664;2023-11-19T10:02:59;96128.34;;;9.84;100.00
25130;BME280;13308;50.860;13.664;2023-11-19T10:05:25;96118.25;;;9.94;100.00
25130;BME280;13308;50.860;13.664;2023-11-19T10:07:51;96116.53;;;10.00;100.00
25130;BME280;13308;50.860;13.664;2023-11-19T10:10:17;96108.53;;;10.05;100.00
25130;BME280;13308;50.860;13.664;2023-11-19T10:12:45;96124.38;;;10.17;100.00
25130;BME280;13308;50.860;13.664;2023-11-19T10:15:20;96117.69;;;10.18;100.00
25130;BME280;13308;50.860;13.664;2023-11-19T10:17:47;96119.91;;;10.23;100.00
25130;BME280;13308;50.860;13.664;2023-11-19T10:20:13;96126.97;;;10.24;100.00
25130;BME280;13308;50.860;13.664;2023-11-19T10:22:38;96119.81;;;10.27;100.00
25130;BME280;13308;50.860;13.664;2023-11-19T10:25:26;96124.56;;;10.26;100.00
25130;BME280;13308;50.860;13.664;2023-11-19T10:27:50;96124.56;;;10.26;100.00
25130;BME280;13308;50.860;13.664;2023-11-19T10:30:24;96117.41;;;10.29;100.00
25130;BME280;13308;50.860;13.664;2023-11-19T10:35:34;96112.38;;;10.40;100.00
25130;BME280;13308;50.860;13.664;2023-11-19T10:38:02;96115.09;;;10.56;100.00
25130;BME280;13308;50.860;13.664;2023-11-19T10:40:38;96111.69;;;10.64;100.00
25130;BME280;13308;50.860;13.664;2023-11-19T10:43:07;96114.63;;;10.73;100.00
25130;BME280;13308;50.860;13.664;2023-11-19T10:45:34;96107.19;;;10.70;100.00
25130;BME280;13308;50.860;13.664;2023-11-19T10:47:59;96110.84;;;10.67;100.00
25130;BME280;13308;50.860;13.664;2023-11-19T10:50:26;96112.06;;;10.66;100.00
25130;BME280;13308;50.860;13.664;2023-11-19T10:52:56;96123.53;;;10.65;100.00
25130;BME280;13308;50.860;13.664;2023-11-19T10:55:29;96125.16;;;10.62;100.00
25130;BME280;13308;50.860;13.664;2023-11-19T10:58:02;96116.75;;;10.53;100.00
25130;BME280;13308;50.860;13.664;2023-11-19T11:00:29;96129.44;;;10.51;100.00
25130;BME280;13308;50.860;13.664;2023-11-19T11:03:00;96125.38;;;10.39;100.00
25130;BME280;13308;50.860;13.664;2023-11-19T11:05:27;96114.16;;;10.46;100.00
25130;BME280;13308;50.860;13.664;2023-11-19T11:07:55;96124.84;;;10.44;100.00
25130;BME280;13308;50.860;13.664;2023-11-19T11:10:24;96123.13;;;10.50;100.00
25130;BME280;13308;50.860;13.664;2023-11-19T11:12:52;96117.78;;;10.59;100.00
25130;BME280;13308;50.860;13.664;2023-11-19T11:15:21;96109.50;;;10.59;100.00
25130;BME280;13308;50.860;13.664;2023-11-19T11:17:48;96121.72;;;10.58;100.00
25130;BME280;13308;50.860;13.664;2023-11-19T11:20:14;96118.09;;;10.61;100.00
25130;BME280;13308;50.860;13.664;2023-11-19T11:23:01;96114.81;;;10.66;100.00
25130;BME280;13308;50.860;13.664;2023-11-19T11:28:29;96123.63;;;10.61;100.00
25130;BME280;13308;50.860;13.664;2023-11-19T11:36:38;96135.13;;;10.72;100.00
25130;BME280;13308;50.860;13.664;2023-11-19T11:39:10;96126.19;;;10.68;100.00
25130;BME280;13308;50.860;13.664;2023-11-19T11:41:36;96123.13;;;10.79;100.00
25130;BME280;13308;50.860;13.664;2023-11-19T11:44:01;96122.56;;;10.71;100.00
25130;BME280;13308;50.860;13.664;2023-11-19T11:49:08;96121.78;;;11.24;100.00
25130;BME280;13308;50.860;13.664;2023-11-19T11:54:08;96121.34;;;11.13;100.00
25130;BME280;13308;50.860;13.664;2023-11-19T11:56:33;96127.41;;;11.08;100.00
25130;BME280;13308;50.860;13.664;2023-11-19T11:59:01;96119.13;;;11.08;100.00
25130;BME280;13308;50.860;13.664;2023-11-19T12:01:27;96109.63;;;11.09;100.00
25130;BME280;13308;50.860;13.664;2023-11-19T12:03:57;96106.25;;;11.43;100.00
25130;BME280;13308;50.860;13.664;2023-11-19T12:06:23;96117.53;;;12.45;100.00
25130;BME280;13308;50.860;13.664;2023-11-19T12:08:49;96110.47;;;12.99;100.00
25130;BME280;13308;50.860;13.664;2023-11-19T12:11:16;96104.38;;;12.92;100.00
25130;BME280;13308;50.860;13.664;2023-11-19T12:13:54;96091.13;;;13.30;100.00
25130;BME280;13308;50.860;13.664;2023-11-19T12:16:21;96090.22;;;13.63;100.00
25130;BME280;13308;50.860;13.664;2023-11-19T12:18:47;96073.91;;;13.65;98.38
25130;BME280;13308;50.860;13.664;2023-11-19T12:21:27;96064.28;;;13.88;96.07
25130;BME280;13308;50.860;13.664;2023-11-19T12:23:54;96077.03;;;13.85;92.48
25130;BME280;13308;50.860;13.664;2023-11-19T12:26:33;96066.78;;;14.04;91.50
25130;BME280;13308;50.860;13.664;2023-11-19T12:29:00;96059.22;;;13.95;89.64
25130;BME280;13308;50.860;13.664;2023-11-19T12:31:32;96050.00;;;14.07;91.38
25130;BME280;13308;50.860;13.664;2023-11-19T12:34:04;96060.19;;;14.10;89.76
25130;BME280;13308;50.860;13.664;2023-11-19T12:36:30;96074.31;;;13.94;88.77
25130;BME280;13308;50.860;13.664;2023-11-19T12:38:55;96057.91;;;13.69;90.65
25130;BME280;13308;50.860;13.664;2023-11-19T12:41:20;96064.38;;;13.36;92.70
25130;BME280;13308;50.860;13.664;2023-11-19T12:43:48;96057.56;;;13.58;91.50
25130;BME280;13308;50.860;13.664;2023-11-19T12:48:43;96072.78;;;13.93;87.70
25130;BME280;13308;50.860;13.664;2023-11-19T12:51:08;96058.44;;;13.16;91.50
25130;BME280;13308;50.860;13.664;2023-11-19T12:53:51;96062.50;;;13.63;91.73
25130;BME280;13308;50.860;13.664;2023-11-19T12:56:19;96063.31;;;13.73;90.24
25130;BME280;13308;50.860;13.664;2023-11-19T12:58:44;96062.66;;;14.17;87.60
25130;BME280;13308;50.860;13.664;2023-11-19T13:01:18;96050.38;;;14.36;84.92
25130;BME280;13308;50.860;13.664;2023-11-19T13:03:44;96054.22;;;13.72;86.42
25130;BME280;13308;50.860;13.664;2023-11-19T13:06:11;96057.06;;;13.99;86.29
25130;BME280;13308;50.860;13.664;2023-11-19T13:11:03;96047.81;;;14.02;86.77
25130;BME280;13308;50.860;13.664;2023-11-19T13:13:29;96050.59;;;13.93;85.42
25130;BME280;13308;50.860;13.664;2023-11-19T13:16:04;96056.25;;;12.89;88.05
25130;BME280;13308;50.860;13.664;2023-11-19T13:18:34;96044.63;;;12.17;93.83
25130;BME280;13308;50.860;13.664;2023-11-19T13:21:00;96048.75;;;12.00;95.62
25130;BME280;13308;50.860;13.664;2023-11-19T13:23:25;96049.69;;;11.85;97.53
25130;BME280;13308;50.860;13.664;2023-11-19T13:25:50;96043.22;;;11.66;99.16
25130;BME280;13308;50.860;13.664;2023-11-19T13:28:16;96038.75;;;11.69;99.83
25130;BME280;13308;50.860;13.664;2023-11-19T13:30:41;96047.06;;;11.56;100.00
25130;BME280;13308;50.860;13.664;2023-11-19T13:33:06;96050.47;;;11.85;100.00
25130;BME280;13308;50.860;13.664;2023-11-19T13:35:32;96049.81;;;11.81;100.00
25130;BME280;13308;50.860;13.664;2023-11-19T13:37:57;96044.53;;;11.49;100.00
25130;BME280;13308;50.860;13.664;2023-11-19T13:40:23;96038.13;;;11.27;100.00
25130;BME280;13308;50.860;13.664;2023-11-19T13:42:49;96033.78;;;11.14;100.00
25130;BME280;13308;50.860;13.664;2023-11-19T13:45:15;96041.72;;;10.99;100.00
25130;BME280;13308;50.860;13.664;2023-11-19T13:47:43;96049.25;;;11.49;100.00
25130;BME280;13308;50.860;13.664;2023-11-19T13:50:13;96047.16;;;11.65;100.00
25130;BME280;13308;50.860;13.664;2023-11-19T13:52:40;96032.47;;;11.31;100.00
25130;BME280;13308;50.860;13.664;2023-11-19T13:55:09;96043.28;;;11.38;100.00
25130;BME280;13308;50.860;13.664;2023-11-19T13:57:38;96048.69;;;11.41;100.00
25130;BME280;13308;50.860;13.664;2023-11-19T14:00:05;96061.22;;;12.17;100.00
25130;BME280;13308;50.860;13.664;2023-11-19T14:02:34;96059.84;;;12.34;100.00
25130;BME280;13308;50.860;13.664;2023-11-19T14:04:59;96074.78;;;12.24;100.00
25130;BME280;13308;50.860;13.664;2023-11-19T14:07:25;96072.53;;;11.98;100.00
25130;BME280;13308;50.860;13.664;2023-11-19T14:09:50;96063.53;;;11.72;100.00
25130;BME280;13308;50.860;13.664;2023-11-19T14:12:16;96054.78;;;11.36;100.00
25130;BME280;13308;50.860;13.664;2023-11-19T14:14:42;96066.06;;;11.17;100.00
25130;BME280;13308;50.860;13.664;2023-11-19T14:17:08;96061.59;;;10.94;100.00
25130;BME280;13308;50.860;13.664;2023-11-19T14:19:33;96065.78;;;10.86;100.00
25130;BME280;13308;50.860;13.664;2023-11-19T14:21:59;96072.34;;;10.76;100.00
25130;BME280;13308;50.860;13.664;2023-11-19T14:24:25;96064.28;;;10.57;100.00
25130;BME280;13308;50.860;13.664;2023-11-19T14:26:51;96057.16;;;10.43;100.00
25130;BME280;13308;50.860;13.664;2023-11-19T14:29:17;96059.59;;;10.41;100.00
25130;BME280;13308;50.860;13.664;2023-11-19T14:31:43;96068.38;;;10.36;100.00
25130;BME280;13308;50.860;13.664;2023-11-19T14:34:08;96066.34;;;10.24;100.00
25130;BME280;13308;50.860;13.664;2023-11-19T14:36:34;96073.59;;;10.18;100.00
25130;BME280;13308;50.860;13.664;2023-11-19T14:39:00;96063.94;;;10.10;100.00
25130;BME280;13308;50.860;13.664;2023-11-19T14:41:25;96058.09;;;10.08;100.00
25130;BME280;13308;50.860;13.664;2023-11-19T14:43:51;96063.63;;;10.08;100.00
25130;BME280;13308;50.860;13.664;2023-11-19T14:46:16;96061.38;;;10.03;100.00
25130;BME280;13308;50.860;13.664;2023-11-19T14:48:41;96057.56;;;9.97;100.00
25130;BME280;13308;50.860;13.664;2023-11-19T14:51:07;96064.13;;;9.87;100.00
25130;BME280;13308;50.860;13.664;2023-11-19T14:53:33;96058.13;;;9.76;100.00
25130;BME280;13308;50.860;13.664;2023-11-19T14:55:59;96062.00;;;9.79;100.00
25130;BME280;13308;50.860;13.664;2023-11-19T14:58:25;96049.00;;;9.79;100.00
25130;BME280;13308;50.860;13.664;2023-11-19T15:00:51;96054.91;;;9.78;100.00
25130;BME280;13308;50.860;13.664;2023-11-19T15:03:17;96050.47;;;9.68;100.00
25130;BME280;13308;50.860;13.664;2023-11-19T15:05:45;96054.59;;;9.60;100.00
25130;BME280;13308;50.860;13.664;2023-11-19T15:08:11;96056.16;;;9.61;100.00
25130;BME280;13308;50.860;13.664;2023-11-19T15:10:36;96052.28;;;9.58;100.00
25130;BME280;13308;50.860;13.664;2023-11-19T15:13:02;96046.06;;;9.54;100.00
25130;BME280;13308;50.860;13.664;2023-11-19T15:15:29;96051.16;;;9.40;100.00
25130;BME280;13308;50.860;13.664;2023-11-19T15:17:54;96051.31;;;9.49;100.00
25130;BME280;13308;50.860;13.664;2023-11-19T15:20:19;96066.28;;;9.32;100.00
25130;BME280;13308;50.860;13.664;2023-11-19T15:22:46;96048.28;;;9.27;100.00
25130;BME280;13308;50.860;13.664;2023-11-19T15:25:12;96058.28;;;9.37;100.00
25130;BME280;13308;50.860;13.664;2023-11-19T15:27:38;96052.44;;;9.35;100.00
25130;BME280;13308;50.860;13.664;2023-11-19T15:30:04;96054.56;;;9.28;100.00
25130;BME280;13308;50.860;13.664;2023-11-19T15:32:30;96048.16;;;9.34;100.00
25130;BME280;13308;50.860;13.664;2023-11-19T15:34:57;96046.75;;;9.26;100.00
25130;BME280;13308;50.860;13.664;2023-11-19T15:37:23;96053.78;;;9.27;100.00
25130;BME280;13308;50.860;13.664;2023-11-19T15:39:48;96060.09;;;9.28;100.00
25130;BME280;13308;50.860;13.664;2023-11-19T15:42:16;96058.63;;;9.23;100.00
25130;BME280;13308;50.860;13.664;2023-11-19T15:44:42;96052.16;;;9.30;100.00
25130;BME280;13308;50.860;13.664;2023-11-19T15:47:08;96056.38;;;9.18;100.00
25130;BME280;13308;50.860;13.664;2023-11-19T15:49:33;96056.00;;;9.00;100.00
25130;BME280;13308;50.860;13.664;2023-11-19T15:51:59;96052.06;;;9.17;100.00
25130;BME280;13308;50.860;13.664;2023-11-19T15:54:25;96057.75;;;9.10;100.00
25130;BME280;13308;50.860;13.664;2023-11-19T15:56:50;96061.25;;;9.11;100.00
25130;BME280;13308;50.860;13.664;2023-11-19T15:59:15;96053.78;;;9.11;100.00
25130;BME280;13308;50.860;13.664;2023-11-19T16:01:41;96050.88;;;9.18;100.00
25130;BME280;13308;50.860;13.664;2023-11-19T16:04:06;96049.31;;;9.17;100.00
25130;BME280;13308;50.860;13.664;2023-11-19T16:06:34;96053.19;;;9.20;100.00
25130;BME280;13308;50.860;13.664;2023-11-19T16:09:00;96060.50;;;9.10;100.00
25130;BME280;13308;50.860;13.664;2023-11-19T16:11:26;96055.00;;;9.26;100.00
25130;BME280;13308;50.860;13.664;2023-11-19T16:13:51;96055.69;;;9.30;100.00
25130;BME280;13308;50.860;13.664;2023-11-19T16:16:16;96049.66;;;9.19;100.00
25130;BME280;13308;50.860;13.664;2023-11-19T16:18:42;96055.50;;;9.21;100.00
25130;BME280;13308;50.860;13.664;2023-11-19T16:21:07;96055.00;;;9.10;100.00
25130;BME280;13308;50.860;13.664;2023-11-19T16:23:33;96049.91;;;9.25;100.00
25130;BME280;13308;50.860;13.664;2023-11-19T16:26:00;96058.78;;;9.16;100.00
25130;BME280;13308;50.860;13.664;2023-11-19T16:28:25;96055.94;;;9.20;100.00
25130;BME280;13308;50.860;13.664;2023-11-19T16:30:50;96058.84;;;9.13;100.00
25130;BME280;13308;50.860;13.664;2023-11-19T16:33:16;96054.81;;;9.17;100.00
25130;BME280;13308;50.860;13.664;2023-11-19T16:35:41;96062.63;;;9.19;100.00
25130;BME280;13308;50.860;13.664;2023-11-19T16:38:07;96063.94;;;9.30;100.00
25130;BME280;13308;50.860;13.664;2023-11-19T16:40:32;96078.56;;;9.27;100.00
25130;BME280;13308;50.860;13.664;2023-11-19T16:42:57;96066.88;;;9.39;100.00
25130;BME280;13308;50.860;13.664;2023-11-19T16:45:23;96073.50;;;9.26;100.00
25130;BME280;13308;50.860;13.664;2023-11-19T16:47:48;96075.13;;;9.23;100.00
25130;BME280;13308;50.860;13.664;2023-11-19T16:50:14;96078.75;;;9.36;100.00
25130;BME280;13308;50.860;13.664;2023-11-19T16:52:42;96070.22;;;9.31;100.00
25130;BME280;13308;50.860;13.664;2023-11-19T16:55:08;96071.16;;;9.24;100.00
25130;BME280;13308;50.860;13.664;2023-11-19T16:57:43;96071.63;;;9.03;100.00
25130;BME280;13308;50.860;13.664;2023-11-19T17:00:11;96077.34;;;9.12;100.00
25130;BME280;13308;50.860;13.664;2023-11-19T17:02:38;96080.94;;;9.09;100.00
25130;BME280;13308;50.860;13.664;2023-11-19T17:05:08;96074.09;;;9.17;100.00
25130;BME280;13308;50.860;13.664;2023-11-19T17:07:33;96075.88;;;9.08;100.00
25130;BME280;13308;50.860;13.664;2023-11-19T17:09:59;96068.28;;;9.12;100.00
25130;BME280;13308;50.860;13.664;2023-11-19T17:12:24;96060.78;;;8.96;100.00
25130;BME280;13308;50.860;13.664;2023-11-19T17:14:50;96067.16;;;8.93;100.00
25130;BME280;13308;50.860;13.664;2023-11-19T17:17:18;96066.88;;;8.88;100.00
25130;BME280;13308;50.860;13.664;2023-11-19T17:19:43;96077.75;;;8.75;100.00
25130;BME280;13308;50.860;13.664;2023-11-19T17:22:08;96083.59;;;8.77;100.00
25130;BME280;13308;50.860;13.664;2023-11-19T17:24:34;96068.97;;;8.80;100.00
25130;BME280;13308;50.860;13.664;2023-11-19T17:27:00;96080.75;;;8.81;100.00
25130;BME280;13308;50.860;13.664;2023-11-19T17:29:25;96071.22;;;8.85;100.00
25130;BME280;13308;50.860;13.664;2023-11-19T17:31:51;96083.66;;;8.93;100.00
25130;BME280;13308;50.860;13.664;2023-11-19T17:34:16;96068.84;;;9.23;100.00
25130;BME280;13308;50.860;13.664;2023-11-19T17:36:43;96064.78;;;9.27;100.00
25130;BME280;13308;50.860;13.664;2023-11-19T17:39:09;96076.25;;;9.26;100.00
25130;BME280;13308;50.860;13.664;2023-11-19T17:41:34;96082.16;;;9.24;100.00
25130;BME280;13308;50.860;13.664;2023-11-19T17:43:59;96085.09;;;9.17;100.00
25130;BME280;13308;50.860;13.664;2023-11-19T17:46:25;96086.13;;;9.23;100.00
25130;BME280;13308;50.860;13.664;2023-11-19T17:48:50;96092.13;;;9.18;100.00
25130;BME280;13308;50.860;13.664;2023-11-19T17:51:17;96094.97;;;9.15;100.00
25130;BME280;13308;50.860;13.664;2023-11-19T17:53:44;96099.00;;;9.10;100.00
25130;BME280;13308;50.860;13.664;2023-11-19T17:56:10;96100.72;;;9.04;100.00
25130;BME280;13308;50.860;13.664;2023-11-19T17:58:35;96106.38;;;9.13;100.00
25130;BME280;13308;50.860;13.664;2023-11-19T18:01:03;96089.03;;;9.16;100.00
25130;BME280;13308;50.860;13.664;2023-11-19T18:03:28;96101.16;;;9.19;100.00
25130;BME280;13308;50.860;13.664;2023-11-19T18:05:54;96101.94;;;9.19;100.00
25130;BME280;13308;50.860;13.664;2023-11-19T18:08:19;96096.34;;;9.23;100.00
25130;BME280;13308;50.860;13.664;2023-11-19T18:10:46;96105.56;;;9.32;100.00
25130;BME280;13308;50.860;13.664;2023-11-19T18:13:12;96103.41;;;9.24;100.00
25130;BME280;13308;50.860;13.664;2023-11-19T18:15:38;96097.72;;;9.31;100.00
25130;BME280;13308;50.860;13.664;2023-11-19T18:18:04;96091.63;;;9.23;100.00
25130;BME280;13308;50.860;13.664;2023-11-19T18:20:29;96097.22;;;9.20;100.00
25130;BME280;13308;50.860;13.664;2023-11-19T18:22:54;96092.97;;;9.15;100.00
25130;BME280;13308;50.860;13.664;2023-11-19T18:25:20;96089.84;;;8.97;100.00
25130;BME280;13308;50.860;13.664;2023-11-19T18:27:47;96094.09;;;8.82;100.00
25130;BME280;13308;50.860;13.664;2023-11-19T18:30:12;96090.97;;;8.80;100.00
25130;BME280;13308;50.860;13.664;2023-11-19T18:32:39;96087.16;;;8.74;100.00
25130;BME280;13308;50.860;13.664;2023-11-19T18:35:06;96091.13;;;8.73;100.00
25130;BME280;13308;50.860;13.664;2023-11-19T18:37:37;96084.56;;;8.67;100.00
25130;BME280;13308;50.860;13.664;2023-11-19T18:40:03;96086.50;;;8.70;100.00
25130;BME280;13308;50.860;13.664;2023-11-19T18:42:30;96093.31;;;8.62;100.00
25130;BME280;13308;50.860;13.664;2023-11-19T18:44:55;96097.63;;;8.63;100.00
25130;BME280;13308;50.860;13.664;2023-11-19T18:47:21;96105.03;;;8.66;100.00
25130;BME280;13308;50.860;13.664;2023-11-19T18:49:46;96106.38;;;8.78;100.00
25130;BME280;13308;50.860;13.664;2023-11-19T18:52:13;96104.69;;;8.64;100.00
25130;BME280;13308;50.860;13.664;2023-11-19T18:54:38;96108.47;;;8.70;100.00
25130;BME280;13308;50.860;13.664;2023-11-19T18:57:04;96107.44;;;8.64;100.00
25130;BME280;13308;50.860;13.664;2023-11-19T18:59:30;96103.63;;;8.58;100.00
25130;BME280;13308;50.860;13.664;2023-11-19T19:01:55;96114.25;;;8.56;100.00
